DW4771 Weather Reports


Display with metric or nautical units.
time (UTC)temp
F
wind
direction
speed
MPH
gust
MPH
rain 1hr
in
rain 24hr
in
rain mn
in
humidity
%
barometer
mb
20170629103624 81 185 9.0 23.0 0.00 0.00 0.00 51 988.6
20170629102824 81 212 13.0 27.0 0.00 0.00 0.00 48 988.5
20170629102024 81 216 10.0 27.0 0.00 0.00 0.00 50 988.5
20170629101225 80 238 12.0 21.0 0.00 0.00 0.00 51 988.6
20170629095624 78 227 15.0 24.0 0.00 0.00 0.00 54 988.4
20170629094824 78 209 15.0 27.0 0.00 0.00 0.00 52 988.6
20170629094033 79 231 14.0 26.0 0.00 0.00 0.00 53 988.5
20170629093225 78 230 14.0 26.0 0.00 0.00 0.00 53 988.5
20170629091624 78 224 13.0 23.0 0.00 0.00 0.00 53 988.7
20170629090824 78 245 11.0 18.0 0.00 0.00 0.00 54 988.8
20170629090025 77 212 13.0 24.0 0.00 0.00 0.00 54 988.8
20170629085224 77 238 13.0 26.0 0.00 0.00 0.00 54 988.8
20170629083624 77 211 9.0 22.0 0.00 0.00 0.00 53 988.6
20170629082827 77 225 6.0 21.0 0.00 0.00 0.00 54 988.6
20170629082027 77 223 7.0 17.0 0.00 0.00 0.00 55 988.3
20170629081224 77 240 6.0 17.0 0.00 0.00 0.00 53 988.3
20170629075625 77 236 11.0 22.0 0.00 0.00 0.00 54 988.4
20170629074024 76 188 9.0 24.0 0.00 0.00 0.00 54 988.3
20170629072429 77 193 12.0 26.0 0.00 0.00 0.00 54 988.3
20170629071624 77 202 11.0 23.0 0.00 0.00 0.00 53 988.1
20170629070824 77 178 11.0 22.0 0.00 0.00 0.00 54 987.8
20170629064424 75 202 10.0 21.0 0.00 0.00 0.00 58 987.8
20170629063624 75 171 7.0 17.0 0.00 0.00 0.00 59 987.7
20170629062824 74 154 7.0 18.0 0.00 0.00 0.00 60 987.8
20170629062024 73 181 5.0 17.0 0.00 0.00 0.00 61 987.8
20170629061227 73 189 4.0 15.0 0.00 0.00 0.00 61 987.9
20170629060424 73 190 5.0 14.0 0.00 0.00 0.00 63 987.9
20170629055624 73 184 4.0 14.0 0.00 0.00 0.00 63 987.7
20170629054827 73 205 3.0 11.0 0.00 0.00 0.00 64 988.0
20170629053224 74 163 5.0 17.0 0.00 0.00 0.00 63 987.8
20170629045224 78 158 5.0 10.0 0.00 0.00 0.00 60 987.8
20170629044424 78 155 5.0 11.0 0.00 0.00 0.00 64 988.0
20170629043624 75 156 3.0 8.0 0.00 0.00 0.00 71 988.1
20170629041224 70 140 4.0 11.0 0.00 0.00 0.00 78 988.6
20170629040424 69 133 3.0 9.0 0.00 0.00 0.00 78 988.8
20170629034824 70 162 2.0 5.0 0.00 0.00 0.00 77 989.0
20170629034024 70 177 1.0 5.0 0.00 0.00 0.00 76 989.0
20170629032424 70 153 5.0 11.0 0.00 0.00 0.00 76 989.2
20170629031624 70 150 5.0 11.0 0.00 0.00 0.00 76 989.4
20170629030824 70 144 7.0 11.0 0.00 0.00 0.00 77 989.4
20170629030024 70 153 5.0 13.0 0.00 0.00 0.00 78 989.8
20170629025224 69 142 5.0 16.0 0.00 0.00 0.00 80 990.1
20170629024424 68 136 5.0 16.0 0.00 0.00 0.00 83 990.1
20170629023624 67 153 5.0 14.0 0.00 0.00 0.00 85 990.0
20170629022824 67 167 5.0 11.0 0.00 0.00 0.00 85 989.9
20170629021224 67 166 3.0 5.0 0.00 0.00 0.00 85 989.8
20170629020424 67 162 3.0 5.0 0.00 0.00 0.00 86 989.7
20170629015624 66 157 3.0 7.0 0.00 0.00 0.00 85 989.9
20170629014824 66 149 2.0 5.0 0.00 0.00 0.00 85 989.9
20170629014024 66 143 3.0 8.0 0.00 0.00 0.00 84 989.9
20170629012424 67 145 3.0 5.0 0.00 0.00 0.00 83 990.3
20170629010824 67 171 3.0 7.0 0.00 0.00 0.00 82 990.5
20170629010024 67 137 3.0 7.0 0.00 0.00 0.00 82 990.6
20170629005224 68 128 3.0 7.0 0.00 0.00 0.00 81 990.6
20170629004424 68 130 3.0 7.0 0.00 0.00 0.00 81 990.5
20170629003624 68 147 3.0 7.0 0.00 0.00 0.00 80 990.6
20170629002824 68 145 3.0 6.0 0.00 0.00 0.00 80 990.6
20170629002024 69 138 3.0 6.0 0.00 0.00 0.00 78 990.7
20170629000424 69 167 3.0 6.0 0.00 0.00 0.00 77 991.0
20170628235624 69 154 3.0 6.0 0.00 0.00 0.00 76 991.1
20170628234824 70 168 3.0 8.0 0.00 0.00 0.00 75 991.2
20170628234024 70 162 2.0 5.0 0.00 0.00 0.00 74 991.5
20170628232424 71 163 3.0 8.0 0.00 0.00 0.00 73 991.4
20170628230824 71 176 2.0 11.0 0.00 0.00 0.00 75 991.7
20170628230024 72 157 3.0 7.0 0.00 0.00 0.00 75 991.5
20170628225224 72 182 2.0 6.0 0.00 0.00 0.00 75 991.5
20170628223624 72 203 2.0 7.0 0.00 0.00 0.00 77 991.5
20170628222024 72 171 2.0 7.0 0.00 0.00 0.00 77 991.5
20170628221224 72 225 1.0 6.0 0.00 0.00 0.00 77 991.4
20170628220424 72 240 1.0 5.0 0.00 0.00 0.00 77 991.4
20170628214024 72 184 2.0 8.0 0.00 0.00 0.00 80 991.4
20170628213223 72 158 3.0 8.0 0.00 0.00 0.00 81 991.7
20170628212427 71 191 2.0 7.0 0.00 0.00 0.00 82 991.5
20170628211623 71 169 2.0 6.0 0.00 0.00 0.00 81 991.4
20170628210824 72 174 2.0 4.0 0.00 0.00 0.00 80 991.5
20170628205223 73 135 2.0 4.0 0.00 0.00 0.00 77 991.5
20170628204424 73 147 2.0 4.0 0.00 0.00 0.00 76 991.7
20170628203624 74 160 2.0 6.0 0.00 0.00 0.00 75 991.7
20170628202026 74 154 4.0 9.0 0.00 0.00 0.00 74 991.8
20170628201225 74 162 4.0 9.0 0.00 0.00 0.00 74 991.9
20170628195624 75 118 4.0 8.0 0.00 0.00 0.00 71 992.1
20170628194824 76 147 3.0 7.0 0.00 0.00 0.00 70 992.1
20170628193223 77 182 2.0 9.0 0.00 0.00 0.00 67 992.2
20170628192423 78 182 2.0 9.0 0.00 0.00 0.00 65 992.1
20170628191624 78 184 2.0 8.0 0.00 0.00 0.00 64 992.3
20170628190823 79 172 4.0 12.0 0.00 0.00 0.00 62 992.2
20170628185226 79 145 5.0 14.0 0.00 0.00 0.00 62 991.8
20170628184426 79 151 5.0 13.0 0.00 0.00 0.00 61 991.8
20170628183627 80 161 4.0 13.0 0.00 0.00 0.00 59 992.0
20170628182824 80 168 3.0 12.0 0.00 0.00 0.00 58 992.1
20170628182024 80 162 4.0 12.0 0.00 0.00 0.00 57 992.1
20170628175623 82 162 3.0 12.0 0.00 0.00 0.00 54 991.7
20170628173223 83 152 4.0 19.0 0.00 0.00 0.00 53 991.8
20170628171623 83 198 3.0 8.0 0.00 0.00 0.00 53 992.0
20170628170023 85 176 2.0 9.0 0.00 0.00 0.00 52 992.2
20170628165223 85 150 3.0 11.0 0.00 0.00 0.00 51 992.1
20170628164423 85 167 4.0 14.0 0.00 0.00 0.00 50 992.0
20170628162823 87 140 5.0 11.0 0.00 0.00 0.00 49 992.0
20170628162024 89 158 4.0 11.0 0.00 0.00 0.00 46 992.1
20170628155624 92 145 5.0 12.0 0.00 0.00 0.00 46 992.0
20170628154824 89 148 5.0 11.0 0.00 0.00 0.00 50 992.2
20170628154023 89 170 6.0 13.0 0.00 0.00 0.00 48 992.3
20170628153226 88 185 6.0 13.0 0.00 0.00 0.00 47 992.6
20170628152423 89 173 6.0 17.0 0.00 0.00 0.00 46 992.6
20170628151625 89 174 4.0 17.0 0.00 0.00 0.00 44 992.8
20170628150823 90 21 3.0 13.0 0.00 0.00 0.00 43 992.7
20170628150023 91 121 5.0 17.0 0.00 0.00 0.00 43 992.7
20170628145223 92 142 5.0 17.0 0.00 0.00 0.00 41 992.8
20170628144423 92 159 4.0 11.0 0.00 0.00 0.00 43 992.9
20170628142823 90 184 5.0 15.0 0.00 0.00 0.00 43 993.0
20170628142023 90 186 6.0 22.0 0.00 0.00 0.00 41 992.9
20170628140423 91 191 5.0 19.0 0.00 0.00 0.00 40 993.0
20170628134823 91 186 6.0 21.0 0.00 0.00 0.00 40 993.3
20170628134024 92 188 6.0 21.0 0.00 0.00 0.00 41 993.4
20170628133226 91 173 5.0 16.0 0.00 0.00 0.00 41 993.5
20170628132423 91 165 5.0 17.0 0.00 0.00 0.00 39 993.8
20170628130824 94 177 5.0 12.0 0.00 0.00 0.00 38 993.8
20170628130023 93 160 6.0 18.0 0.00 0.00 0.00 42 993.8
20170628125223 92 160 5.0 14.0 0.00 0.00 0.00 43 994.0
20170628124423 92 201 6.0 20.0 0.00 0.00 0.00 41 994.2
20170628123623 92 196 9.0 20.0 0.00 0.00 0.00 38 994.2
20170628120423 91 143 6.0 14.0 0.00 0.00 0.00 40 994.6
20170628115623 92 215 8.0 19.0 0.00 0.00 0.00 40 994.7
20170628114823 92 236 9.0 19.0 0.00 0.00 0.00 39 994.7
20170628114023 92 229 9.0 21.0 0.00 0.00 0.00 40 994.7
20170628113223 91 175 9.0 23.0 0.00 0.00 0.00 40 994.9
20170628112423 92 188 11.0 24.0 0.00 0.00 0.00 39 995.0
20170628111623 91 237 12.0 24.0 0.00 0.00 0.00 39 995.1
20170628110823 91 244 11.0 23.0 0.00 0.00 0.00 40 995.2
20170628105226 90 211 12.0 22.0 0.00 0.00 0.00 41 995.3
20170628104423 90 202 8.0 22.0 0.00 0.00 0.00 42 995.4